Time;durP1;ratioP1;P1;durP2;ratioP2;P2;SDS_P1;SDS_P2;PMS_P1;PMS_P2;Temp;Humidity;BMP_temperature;BMP_pressure;BME280_temperature;BME280_humidity;BME280_pressure;Samples;Min_cycle;Max_cycle;Signal;HPM_P1;HPM_P2
2022/01/10 00:01:28;;;;;;;49.65;11.52;;;1.30;99.90;;;;;;4995164;28;20054;-85
2022/01/10 00:03:55;;;;;;;51.42;11.57;;;1.40;99.90;;;;;;4960979;28;20154;-85
2022/01/10 00:06:20;;;;;;;45.00;12.65;;;1.30;99.90;;;;;;4994623;28;20050;-85
2022/01/10 00:08:46;;;;;;;38.25;10.50;;;1.30;99.90;;;;;;4976968;28;20113;-84
2022/01/10 00:11:12;;;;;;;52.70;11.68;;;1.30;99.90;;;;;;4993819;28;20053;-84
2022/01/10 00:13:37;;;;;;;45.30;11.27;;;1.30;99.90;;;;;;4994497;28;20053;-85
2022/01/10 00:16:03;;;;;;;53.75;10.40;;;1.20;99.90;;;;;;4993104;28;20492;-86
2022/01/10 00:18:29;;;;;;;35.40;11.15;;;1.20;99.90;;;;;;4994317;28;20061;-84
2022/01/10 00:20:54;;;;;;;34.65;9.68;;;1.20;99.90;;;;;;4975596;28;20038;-85
2022/01/10 00:23:20;;;;;;;52.40;11.15;;;1.20;99.90;;;;;;4992065;28;20050;-85
2022/01/10 00:25:46;;;;;;;47.55;10.32;;;1.10;99.90;;;;;;4994061;28;20043;-84
2022/01/10 00:28:11;;;;;;;53.67;13.13;;;1.40;99.90;;;;;;4994070;28;20057;-86
2022/01/10 00:30:37;;;;;;;45.03;11.15;;;1.00;99.90;;;;;;4976018;28;20516;-86
2022/01/10 00:33:03;;;;;;;45.80;11.90;;;1.00;99.90;;;;;;4975019;28;20062;-85
2022/01/10 00:35:28;;;;;;;45.63;10.05;;;0.90;99.90;;;;;;4993837;28;20050;-85
2022/01/10 00:37:54;;;;;;;36.83;10.48;;;0.90;99.90;;;;;;4976787;28;20412;-85
2022/01/10 00:40:20;;;;;;;57.90;11.15;;;0.90;99.90;;;;;;4977261;28;20120;-86
2022/01/10 00:42:54;;;;;;;53.90;11.43;;;0.80;99.90;;;;;;4995204;28;20061;-85
2022/01/10 00:45:23;;;;;;;43.08;10.75;;;0.70;99.90;;;;;;4993449;28;20054;-85
2022/01/10 00:47:49;;;;;;;49.30;11.00;;;0.80;99.90;;;;;;4993483;28;20598;-84
2022/01/10 00:50:16;;;;;;;48.83;11.60;;;1.60;99.90;;;;;;4992919;28;20102;-85
2022/01/10 00:52:42;;;;;;;51.85;11.70;;;0.60;99.90;;;;;;4977037;28;20054;-85
2022/01/10 00:55:08;;;;;;;55.30;12.73;;;0.60;99.90;;;;;;4993982;28;20054;-86
2022/01/10 00:57:34;;;;;;;47.78;11.35;;;0.50;99.90;;;;;;4992711;28;20088;-86
2022/01/10 01:00:00;;;;;;;58.35;12.20;;;0.50;99.90;;;;;;4976199;28;20081;-85
2022/01/10 01:02:31;;;;;;;43.40;11.35;;;1.40;99.90;;;;;;4994329;28;20623;-85
2022/01/10 01:04:59;;;;;;;45.13;11.13;;;0.40;99.90;;;;;;4978973;28;20054;-84
2022/01/10 01:07:24;;;;;;;54.03;13.15;;;0.40;99.90;;;;;;4994611;28;20129;-85
2022/01/10 01:10:01;;;;;;;40.80;11.98;;;0.30;99.90;;;;;;4994713;28;20681;-85
2022/01/10 01:12:48;;;;;;;55.28;12.13;;;0.30;99.90;;;;;;4977011;28;20111;-84
2022/01/10 01:18:19;;;;;;;42.92;11.90;;;1.10;99.90;;;;;;4980677;28;20058;-86
2022/01/10 01:24:00;;;;;;;45.17;11.55;;;0.20;99.90;;;;;;4977048;28;20058;-84
2022/01/10 01:26:15;;;;;;;55.65;10.82;;;0.00;99.90;;;;;;4975603;28;20125;-85
2022/01/10 01:28:41;;;;;;;67.82;12.88;;;0.00;99.90;;;;;;4994056;28;20054;-84
2022/01/10 01:31:07;;;;;;;46.20;11.05;;;0.00;99.90;;;;;;4978609;28;20422;-85
2022/01/10 01:33:33;;;;;;;64.65;12.18;;;0.00;99.90;;;;;;4994903;28;20049;-86
2022/01/10 01:35:58;;;;;;;46.40;11.32;;;-0.10;99.90;;;;;;4996660;28;20046;-84
2022/01/10 01:38:24;;;;;;;45.88;10.95;;;-0.20;99.90;;;;;;4995997;28;20068;-85
2022/01/10 01:41:10;;;;;;;47.03;11.63;;;-0.10;99.90;;;;;;4978280;28;20042;-85
2022/01/10 01:43:36;;;;;;;36.72;10.77;;;-0.20;99.90;;;;;;4994244;28;20101;-85
2022/01/10 01:46:02;;;;;;;42.05;10.45;;;-0.20;99.90;;;;;;4994404;28;20050;-84
2022/01/10 01:48:27;;;;;;;52.15;11.45;;;-0.20;99.90;;;;;;4996109;28;20046;-84
2022/01/10 01:50:53;;;;;;;46.75;11.80;;;-0.30;99.90;;;;;;4977227;28;20485;-85
2022/01/10 01:53:19;;;;;;;55.20;13.50;;;-0.30;99.90;;;;;;4960950;28;20050;-84
2022/01/10 01:55:45;;;;;;;56.05;11.63;;;-0.30;99.90;;;;;;4993924;28;20056;-85
2022/01/10 01:58:11;;;;;;;54.13;12.73;;;-0.40;99.90;;;;;;4977207;28;20129;-84
2022/01/10 02:00:37;;;;;;;56.55;12.32;;;-0.40;99.90;;;;;;4993799;28;20050;-83
2022/01/10 02:03:02;;;;;;;52.22;12.45;;;0.70;99.90;;;;;;4976426;28;20047;-84
2022/01/10 02:05:28;;;;;;;61.50;14.05;;;-0.10;99.90;;;;;;4975770;28;20054;-83
2022/01/10 02:07:54;;;;;;;60.00;13.07;;;-0.50;99.90;;;;;;4992493;28;20050;-85
2022/01/10 02:10:20;;;;;;;68.20;12.52;;;-0.40;99.90;;;;;;4992542;28;20082;-84
2022/01/10 02:12:45;;;;;;;60.45;14.15;;;-0.10;99.90;;;;;;4993314;28;20077;-85
2022/01/10 02:15:25;;;;;;;50.67;13.27;;;-0.50;99.90;;;;;;4994631;28;20045;-84
2022/01/10 02:17:55;;;;;;;53.78;11.75;;;-0.20;99.90;;;;;;4979534;28;20061;-84
2022/01/10 02:20:20;;;;;;;63.30;15.13;;;0.00;99.90;;;;;;4963805;28;20046;-84
2022/01/10 02:22:46;;;;;;;66.43;14.43;;;0.00;99.90;;;;;;4978969;28;20121;-83
2022/01/10 02:25:12;;;;;;;56.00;12.75;;;0.00;99.90;;;;;;4977471;28;20070;-84
2022/01/10 02:27:39;;;;;;;62.25;14.05;;;0.00;99.90;;;;;;4976257;28;20054;-84
2022/01/10 02:30:05;;;;;;;69.78;13.88;;;-0.40;99.90;;;;;;4972565;28;20104;-85
2022/01/10 02:32:34;;;;;;;49.08;15.43;;;-0.10;99.90;;;;;;5015226;28;20050;-84
2022/01/10 02:35:00;;;;;;;60.90;12.85;;;-0.20;99.90;;;;;;4996592;28;20057;-84
2022/01/10 02:37:33;;;;;;;59.30;14.05;;;-0.20;99.90;;;;;;4997382;28;20125;-84
2022/01/10 02:40:02;;;;;;;63.05;13.90;;;-0.20;99.90;;;;;;5015108;28;20073;-85
2022/01/10 02:42:28;;;;;;;59.67;15.07;;;0.30;99.90;;;;;;5014601;28;20078;-84
2022/01/10 02:44:53;;;;;;;69.93;14.15;;;-0.20;99.90;;;;;;4995487;28;20052;-84
2022/01/10 02:47:19;;;;;;;69.28;15.60;;;-0.30;99.90;;;;;;5012770;28;20038;-84
2022/01/10 02:49:45;;;;;;;64.45;16.10;;;-0.30;99.90;;;;;;5014544;28;20391;-84
2022/01/10 02:52:10;;;;;;;82.75;15.82;;;-0.30;99.90;;;;;;5012589;28;20507;-84
2022/01/10 02:54:36;;;;;;;66.85;15.93;;;-0.30;99.90;;;;;;4996305;28;20121;-85
2022/01/10 02:57:02;;;;;;;67.63;16.65;;;-0.40;99.90;;;;;;5012317;28;20053;-83
2022/01/10 02:59:27;;;;;;;73.80;17.55;;;-0.40;99.90;;;;;;4993802;28;20050;-84
2022/01/10 03:01:54;;;;;;;59.08;15.63;;;-0.40;99.90;;;;;;4994416;28;20046;-84
2022/01/10 03:04:19;;;;;;;65.25;15.35;;;-0.30;99.90;;;;;;4997123;28;20427;-84
2022/01/10 03:06:45;;;;;;;66.10;16.65;;;-0.40;99.90;;;;;;4998285;28;20129;-84
2022/01/10 03:09:12;;;;;;;66.03;15.52;;;-0.40;99.90;;;;;;4999478;28;20117;-84
2022/01/10 03:11:40;;;;;;;89.25;17.83;;;-0.10;99.90;;;;;;5012565;28;20103;-83
2022/01/10 03:14:05;;;;;;;72.38;14.57;;;-0.10;99.90;;;;;;5012174;28;20049;-83
2022/01/10 03:16:32;;;;;;;82.97;17.40;;;-0.40;99.90;;;;;;5009193;28;20041;-84
2022/01/10 03:18:58;;;;;;;86.53;19.42;;;-0.40;99.90;;;;;;5012619;28;20057;-85
2022/01/10 03:21:23;;;;;;;79.07;18.88;;;-0.50;99.90;;;;;;4996379;28;20061;-84
2022/01/10 03:23:53;;;;;;;88.45;17.88;;;-0.50;99.90;;;;;;4997754;28;20049;-85
2022/01/10 03:26:20;;;;;;;82.47;20.45;;;-0.50;99.90;;;;;;5015195;28;20246;-84
2022/01/10 03:28:46;;;;;;;83.95;20.77;;;0.20;99.90;;;;;;4998349;28;20132;-85
2022/01/10 03:31:12;;;;;;;88.40;21.48;;;-0.50;99.90;;;;;;4979853;28;20140;-83
2022/01/10 03:33:38;;;;;;;92.03;23.10;;;-0.50;99.90;;;;;;4962996;28;20101;-84
2022/01/10 03:36:04;;;;;;;89.15;23.05;;;-0.40;99.90;;;;;;4998257;28;20065;-85
2022/01/10 03:38:30;;;;;;;84.95;20.23;;;-0.40;99.90;;;;;;4998632;28;20050;-85
2022/01/10 03:40:56;;;;;;;101.28;24.05;;;-0.40;99.90;;;;;;4997037;28;20322;-84
2022/01/10 03:43:21;;;;;;;89.93;21.48;;;0.20;99.90;;;;;;5000021;28;20085;-84
2022/01/10 03:45:47;;;;;;;100.45;23.50;;;-0.40;99.90;;;;;;4980728;28;20061;-82
2022/01/10 03:48:13;;;;;;;94.28;23.90;;;-0.30;99.90;;;;;;4997147;28;20052;-84
2022/01/10 03:50:38;;;;;;;107.03;23.80;;;-0.40;99.90;;;;;;4996422;28;20085;-85
2022/01/10 03:53:04;;;;;;;94.88;24.17;;;-0.40;99.90;;;;;;4996142;28;20061;-83
2022/01/10 03:55:30;;;;;;;115.53;24.42;;;-0.40;99.90;;;;;;4977345;28;20049;-83
2022/01/10 03:57:56;;;;;;;104.93;23.40;;;-0.40;99.90;;;;;;4995020;28;20065;-84
2022/01/10 04:00:22;;;;;;;103.53;22.98;;;-0.50;99.90;;;;;;4977710;28;20504;-84
2022/01/10 04:02:55;;;;;;;104.97;26.52;;;-0.50;99.90;;;;;;4995866;28;20100;-83
2022/01/10 04:05:21;;;;;;;99.78;22.88;;;-0.50;99.90;;;;;;4962008;28;20046;-84
2022/01/10 04:07:46;;;;;;;105.65;23.38;;;-0.50;99.90;;;;;;4996083;28;20598;-84
2022/01/10 04:10:12;;;;;;;89.53;22.80;;;-0.60;99.90;;;;;;4977170;28;20058;-84
2022/01/10 04:12:38;;;;;;;102.43;23.55;;;-0.60;99.90;;;;;;4995389;28;20039;-84
2022/01/10 04:15:04;;;;;;;120.55;25.67;;;-0.60;99.90;;;;;;4996201;28;20074;-84
2022/01/10 04:17:30;;;;;;;96.97;22.08;;;-0.60;99.90;;;;;;4995481;28;20054;-82
2022/01/10 04:19:56;;;;;;;102.82;24.42;;;-0.60;99.90;;;;;;4993794;28;20177;-84
2022/01/10 04:22:21;;;;;;;116.35;24.23;;;-0.60;99.90;;;;;;4992106;28;20096;-84
2022/01/10 04:24:47;;;;;;;110.53;24.60;;;-0.60;99.90;;;;;;4976070;28;20081;-83
2022/01/10 04:27:13;;;;;;;101.70;24.77;;;-0.60;99.90;;;;;;4994495;28;20114;-84
2022/01/10 04:29:39;;;;;;;97.88;24.60;;;-0.60;99.90;;;;;;4992961;28;20058;-84
2022/01/10 04:32:05;;;;;;;97.18;23.33;;;-0.60;99.90;;;;;;4992834;28;20493;-84
2022/01/10 04:34:30;;;;;;;112.80;26.63;;;-0.60;99.90;;;;;;4994460;28;20062;-84
2022/01/10 04:36:56;;;;;;;103.50;26.52;;;-0.50;99.90;;;;;;4976630;28;20053;-85
2022/01/10 04:39:22;;;;;;;112.45;25.55;;;-0.50;99.90;;;;;;4994355;28;20111;-83
2022/01/10 04:41:48;;;;;;;98.15;25.17;;;-0.50;99.90;;;;;;4977851;28;20119;-84
2022/01/10 04:44:14;;;;;;;126.05;27.38;;;-0.50;99.90;;;;;;4975491;28;20060;-84
2022/01/10 04:46:40;;;;;;;115.57;28.42;;;-0.50;99.90;;;;;;4993863;28;20321;-83
2022/01/10 04:49:10;;;;;;;111.68;29.67;;;-0.60;99.90;;;;;;4976940;28;20482;-84
2022/01/10 04:51:35;;;;;;;118.38;27.92;;;-0.50;99.90;;;;;;4977354;28;20038;-84
2022/01/10 04:54:01;;;;;;;132.98;28.67;;;-0.60;99.90;;;;;;4994196;28;20057;-85
2022/01/10 04:56:26;;;;;;;114.82;27.40;;;-0.60;99.90;;;;;;4993961;28;20078;-84
2022/01/10 04:58:52;;;;;;;104.63;26.45;;;-0.60;99.90;;;;;;4977741;28;20065;-84
2022/01/10 05:01:19;;;;;;;106.63;27.52;;;-0.70;99.90;;;;;;4994145;28;20112;-84
2022/01/10 05:03:45;;;;;;;110.55;26.50;;;0.00;99.90;;;;;;4958641;28;20054;-83
2022/01/10 05:06:11;;;;;;;112.72;27.65;;;-0.50;99.90;;;;;;4974852;28;20456;-84
2022/01/10 05:08:36;;;;;;;105.93;26.88;;;-0.80;99.90;;;;;;4993010;28;20050;-84
2022/01/10 05:11:03;;;;;;;99.68;28.90;;;-0.80;99.90;;;;;;4994748;28;20489;-84
2022/01/10 05:13:29;;;;;;;108.22;26.70;;;-0.80;99.90;;;;;;4976704;28;20050;-83
2022/01/10 05:15:55;;;;;;;112.10;28.20;;;-0.80;99.90;;;;;;4959093;28;20057;-83
2022/01/10 05:18:22;;;;;;;112.90;27.55;;;0.00;99.90;;;;;;4977315;28;20161;-84
2022/01/10 05:20:49;;;;;;;98.60;26.52;;;-0.90;99.90;;;;;;4994996;28;20136;-84
2022/01/10 05:23:15;;;;;;;102.68;26.92;;;-1.00;99.90;;;;;;4977945;28;20050;-84
2022/01/10 05:25:41;;;;;;;133.38;30.55;;;-1.80;99.90;;;;;;4992673;28;20511;-83
2022/01/10 05:28:11;;;;;;;107.28;25.98;;;-1.10;99.90;;;;;;4993374;28;20058;-84
2022/01/10 05:30:38;;;;;;;122.05;29.67;;;-1.10;99.90;;;;;;4991752;28;20081;-84
2022/01/10 05:33:07;;;;;;;122.28;30.60;;;-1.20;99.90;;;;;;5012046;28;20128;-83
2022/01/10 05:35:34;;;;;;;122.43;29.15;;;-1.20;99.90;;;;;;5012723;28;20404;-83
2022/01/10 05:37:59;;;;;;;111.35;28.30;;;-0.50;99.90;;;;;;5011981;28;20450;-83
2022/01/10 05:40:25;;;;;;;130.38;31.33;;;-1.40;99.90;;;;;;5012269;28;20049;-83
2022/01/10 05:42:51;;;;;;;124.10;28.83;;;-1.40;99.90;;;;;;5011038;28;20042;-83
2022/01/10 05:45:16;;;;;;;120.85;27.90;;;-1.40;99.90;;;;;;5004315;28;20053;-84
2022/01/10 05:47:45;;;;;;;115.93;29.67;;;-1.50;99.90;;;;;;4980780;28;20077;-83
2022/01/10 05:50:14;;;;;;;129.50;29.48;;;-1.50;99.90;;;;;;5000957;28;20054;-83
2022/01/10 05:52:40;;;;;;;127.05;30.67;;;-1.00;99.90;;;;;;4974528;28;20052;-84
2022/01/10 05:55:06;;;;;;;127.10;30.60;;;-1.50;99.90;;;;;;4975707;28;20567;-83
2022/01/10 05:57:32;;;;;;;119.45;31.38;;;-1.40;99.90;;;;;;5000630;28;20096;-83
2022/01/10 05:59:57;;;;;;;106.85;29.60;;;-0.80;99.90;;;;;;5010611;28;20081;-83
2022/01/10 06:02:23;;;;;;;128.25;31.13;;;-0.80;99.90;;;;;;4979872;28;20053;-84
2022/01/10 06:04:49;;;;;;;116.15;30.02;;;-1.40;99.90;;;;;;4978954;28;20504;-84
2022/01/10 06:07:15;;;;;;;139.98;33.90;;;-1.50;99.90;;;;;;5011168;28;20052;-84
2022/01/10 06:09:41;;;;;;;132.73;31.38;;;-1.50;99.90;;;;;;5011159;28;20566;-84
2022/01/10 06:12:08;;;;;;;139.40;33.85;;;-1.40;99.90;;;;;;5010547;28;20495;-84
2022/01/10 06:14:33;;;;;;;132.05;32.80;;;-1.50;99.90;;;;;;4994462;28;20093;-84
2022/01/10 06:16:59;;;;;;;131.20;33.95;;;-1.10;99.90;;;;;;5010674;28;20084;-84
2022/01/10 06:19:25;;;;;;;121.90;31.50;;;-0.80;99.90;;;;;;4992530;28;20162;-84
2022/01/10 06:21:50;;;;;;;113.20;29.95;;;-1.60;99.90;;;;;;5009461;28;20524;-84
2022/01/10 06:24:16;;;;;;;125.97;33.30;;;-1.70;99.90;;;;;;4991674;28;20050;-84
2022/01/10 06:26:45;;;;;;;137.18;34.33;;;-1.70;99.90;;;;;;5008947;28;20523;-83
2022/01/10 06:29:11;;;;;;;117.55;32.28;;;-1.70;99.90;;;;;;5010804;28;20066;-83
2022/01/10 06:31:37;;;;;;;124.03;33.55;;;-1.70;99.90;;;;;;4993358;28;20934;-83
2022/01/10 06:34:02;;;;;;;139.57;34.90;;;-1.70;99.90;;;;;;5013227;28;20045;-84
2022/01/10 06:36:28;;;;;;;122.07;33.30;;;-1.70;99.90;;;;;;5013730;28;20096;-84
2022/01/10 06:38:54;;;;;;;130.80;33.75;;;-1.70;99.90;;;;;;5013472;28;20050;-84
2022/01/10 06:41:19;;;;;;;125.90;32.55;;;-1.80;99.90;;;;;;4992477;28;20072;-83
2022/01/10 06:43:45;;;;;;;135.70;36.42;;;-1.70;99.90;;;;;;5012154;28;20077;-84
2022/01/10 06:46:11;;;;;;;129.32;35.90;;;-1.70;99.90;;;;;;5008439;28;20493;-83
2022/01/10 06:48:36;;;;;;;152.38;38.95;;;-1.70;99.90;;;;;;5007662;28;20160;-83
2022/01/10 06:51:02;;;;;;;143.07;37.40;;;-1.80;99.90;;;;;;5010516;28;20055;-83
2022/01/10 06:53:28;;;;;;;125.05;37.42;;;-1.70;99.90;;;;;;5010170;28;20041;-83
2022/01/10 06:55:53;;;;;;;136.52;37.55;;;-1.80;99.90;;;;;;5013728;28;20413;-84
2022/01/10 06:58:19;;;;;;;144.55;38.85;;;-1.80;99.90;;;;;;5015088;28;20129;-84
2022/01/10 07:00:45;;;;;;;142.68;42.10;;;-1.80;99.90;;;;;;5014608;28;20056;-84
2022/01/10 07:03:10;;;;;;;130.73;37.50;;;-1.80;99.90;;;;;;5013670;28;20046;-83
2022/01/10 07:05:36;;;;;;;148.10;39.00;;;-1.80;99.90;;;;;;5013142;28;20060;-83
2022/01/10 07:08:03;;;;;;;142.50;43.00;;;-1.80;99.90;;;;;;5014628;28;20045;-83
2022/01/10 07:10:28;;;;;;;129.75;39.22;;;-1.70;99.90;;;;;;5014176;28;20081;-83
2022/01/10 07:12:54;;;;;;;148.07;39.35;;;-2.50;99.90;;;;;;4997074;28;20132;-83
2022/01/10 07:15:21;;;;;;;136.25;37.63;;;-1.60;99.90;;;;;;4996687;28;20054;-83
2022/01/10 07:17:46;;;;;;;132.82;38.80;;;-1.60;99.90;;;;;;5010529;28;20074;-83
2022/01/10 07:20:12;;;;;;;130.38;39.65;;;-1.60;99.90;;;;;;5011608;28;20085;-83
2022/01/10 07:22:38;;;;;;;139.65;42.33;;;-1.60;99.90;;;;;;5010629;28;20056;-83
2022/01/10 07:25:04;;;;;;;138.85;42.85;;;-1.60;99.90;;;;;;5009679;28;20054;-83
2022/01/10 07:27:30;;;;;;;147.43;41.53;;;-1.70;99.90;;;;;;5009962;28;20038;-84
2022/01/10 07:29:55;;;;;;;141.68;42.88;;;-1.70;99.90;;;;;;5003381;28;20071;-84
2022/01/10 07:32:21;;;;;;;163.80;45.97;;;-1.70;99.90;;;;;;5028994;28;20045;-83
2022/01/10 07:34:47;;;;;;;143.25;43.25;;;-1.70;99.90;;;;;;5028920;28;20052;-83
2022/01/10 07:37:15;;;;;;;170.90;46.17;;;-1.70;99.90;;;;;;5029643;28;20049;-84
2022/01/10 07:39:41;;;;;;;163.57;49.40;;;-1.80;99.90;;;;;;5028902;28;20041;-83
2022/01/10 07:42:07;;;;;;;163.57;47.55;;;-1.80;99.90;;;;;;5028768;28;20130;-84
2022/01/10 07:44:32;;;;;;;160.27;49.70;;;-1.60;99.90;;;;;;5028809;28;20041;-84
2022/01/10 07:46:58;;;;;;;179.63;52.33;;;-1.70;99.90;;;;;;5029192;28;20038;-83
2022/01/10 07:49:24;;;;;;;147.35;47.33;;;-1.70;99.90;;;;;;5029609;28;20502;-82
2022/01/10 07:51:51;;;;;;;160.07;48.72;;;-1.70;99.90;;;;;;5029432;28;20416;-83
2022/01/10 07:54:17;;;;;;;165.50;49.38;;;-1.70;99.90;;;;;;5011225;28;20543;-83
2022/01/10 07:56:42;;;;;;;174.70;50.33;;;-1.70;99.90;;;;;;5011505;28;20053;-83
2022/01/10 07:59:08;;;;;;;171.18;51.22;;;-1.70;99.90;;;;;;5028791;28;20111;-83
2022/01/10 08:01:34;;;;;;;172.45;50.30;;;-1.70;99.90;;;;;;5011718;28;20128;-83
2022/01/10 08:03:59;;;;;;;172.02;50.92;;;-1.70;99.90;;;;;;5029506;28;20045;-84
2022/01/10 08:06:25;;;;;;;157.82;50.15;;;-1.70;99.90;;;;;;5029029;28;20529;-83
2022/01/10 08:09:00;;;;;;;171.02;54.85;;;-1.50;99.90;;;;;;5029205;28;20057;-83
2022/01/10 08:11:27;;;;;;;173.07;51.92;;;-1.50;99.90;;;;;;5028357;28;20385;-83
2022/01/10 08:13:54;;;;;;;170.13;54.25;;;-1.50;99.90;;;;;;5030329;28;20061;-83
2022/01/10 08:16:19;;;;;;;168.18;53.15;;;-1.50;99.90;;;;;;5037102;28;20049;-83
2022/01/10 08:18:45;;;;;;;173.18;56.60;;;-1.40;99.90;;;;;;5045500;28;20147;-83
2022/01/10 08:21:12;;;;;;;184.73;54.33;;;-1.40;99.90;;;;;;5044296;28;20046;-83
2022/01/10 08:23:38;;;;;;;197.65;56.50;;;-1.40;99.90;;;;;;5034354;28;20058;-83
2022/01/10 08:26:07;;;;;;;195.55;56.42;;;-1.40;99.90;;;;;;5028844;28;20053;-82
2022/01/10 08:28:33;;;;;;;178.27;56.47;;;-1.40;99.90;;;;;;5009915;28;20049;-84
2022/01/10 08:30:58;;;;;;;175.40;55.17;;;-1.40;99.90;;;;;;4990412;28;20183;-84
2022/01/10 08:33:24;;;;;;;172.18;53.53;;;-1.30;99.90;;;;;;5007827;28;20496;-84
2022/01/10 08:35:51;;;;;;;172.02;53.47;;;-1.30;99.90;;;;;;4991448;28;20485;-83
2022/01/10 08:38:17;;;;;;;189.30;56.65;;;-1.30;99.90;;;;;;5009660;28;20057;-83
2022/01/10 08:40:43;;;;;;;196.68;60.00;;;-1.20;99.90;;;;;;5008709;28;20416;-83
2022/01/10 08:43:10;;;;;;;213.02;59.85;;;-1.30;99.90;;;;;;5008029;28;20045;-84
2022/01/10 08:45:37;;;;;;;202.57;59.08;;;-1.30;99.90;;;;;;5008429;28;20121;-83
2022/01/10 08:48:03;;;;;;;183.27;58.97;;;-1.30;99.90;;;;;;5008569;28;20046;-83
2022/01/10 08:50:29;;;;;;;203.90;57.42;;;-1.20;99.90;;;;;;5008155;28;20176;-83
2022/01/10 08:52:55;;;;;;;195.70;59.45;;;-1.10;99.90;;;;;;5008483;28;20158;-83
2022/01/10 08:55:20;;;;;;;199.82;58.15;;;-1.00;99.90;;;;;;5008443;28;20046;-83
2022/01/10 08:57:46;;;;;;;202.88;57.05;;;-0.90;99.90;;;;;;5008642;28;20097;-83
2022/01/10 09:00:13;;;;;;;212.52;58.95;;;-0.80;99.90;;;;;;5008891;28;20042;-84
2022/01/10 09:02:39;;;;;;;189.57;59.05;;;-0.70;99.90;;;;;;5008492;28;20117;-83
2022/01/10 09:05:05;;;;;;;210.05;62.72;;;-0.60;99.90;;;;;;5009146;28;20144;-84
2022/01/10 09:07:31;;;;;;;213.45;63.05;;;-0.50;99.90;;;;;;5008650;28;20045;-83
2022/01/10 09:09:57;;;;;;;199.23;60.70;;;-0.40;99.90;;;;;;5006711;28;20157;-84
2022/01/10 09:12:23;;;;;;;189.43;60.47;;;-0.30;99.90;;;;;;5007239;28;20158;-83
2022/01/10 09:14:48;;;;;;;179.75;61.80;;;-0.20;99.90;;;;;;5007016;28;20073;-83
2022/01/10 09:17:14;;;;;;;191.77;62.88;;;-0.10;99.90;;;;;;4997076;28;20050;-83
2022/01/10 09:19:39;;;;;;;211.38;64.53;;;0.00;99.90;;;;;;4989145;28;20249;-83
2022/01/10 09:22:05;;;;;;;192.23;58.72;;;0.00;99.90;;;;;;5006440;28;20050;-83
2022/01/10 09:24:31;;;;;;;220.30;66.80;;;0.00;99.90;;;;;;5006377;28;20046;-83
2022/01/10 09:26:57;;;;;;;205.45;62.75;;;0.00;99.90;;;;;;5006588;28;20115;-83
2022/01/10 09:29:24;;;;;;;196.65;61.28;;;0.00;99.90;;;;;;5006188;28;20521;-84
2022/01/10 09:31:49;;;;;;;224.43;66.88;;;0.10;99.90;;;;;;5006191;28;20041;-83
2022/01/10 09:34:15;;;;;;;196.23;60.25;;;0.10;99.90;;;;;;4988134;28;20049;-83
2022/01/10 09:36:41;;;;;;;200.07;62.90;;;0.40;99.90;;;;;;5005661;28;20042;-83
2022/01/10 09:39:06;;;;;;;216.40;65.28;;;0.20;99.90;;;;;;5006084;28;20128;-83
2022/01/10 09:41:32;;;;;;;195.18;67.55;;;0.20;99.90;;;;;;5005479;28;20440;-83
2022/01/10 09:44:06;;;;;;;196.27;67.55;;;0.20;99.90;;;;;;4999852;28;20536;-83
2022/01/10 09:46:33;;;;;;;200.23;66.10;;;0.20;99.90;;;;;;4997851;28;20046;-82
2022/01/10 09:49:00;;;;;;;178.68;63.22;;;0.30;99.90;;;;;;4991982;28;20583;-83
2022/01/10 09:51:27;;;;;;;185.30;60.15;;;0.30;99.90;;;;;;4997700;28;20743;-83
2022/01/10 09:53:58;;;;;;;201.10;65.00;;;0.30;99.90;;;;;;5004995;28;20672;-83
2022/01/10 09:56:25;;;;;;;191.75;63.35;;;0.40;99.90;;;;;;5005172;28;20119;-82
2022/01/10 09:58:53;;;;;;;192.63;64.53;;;0.40;99.90;;;;;;4987612;28;20058;-83
2022/01/10 10:01:18;;;;;;;187.77;59.78;;;0.40;99.90;;;;;;4987324;28;20069;-83
2022/01/10 10:03:47;;;;;;;176.38;59.97;;;0.50;99.90;;;;;;5004661;28;20054;-83
2022/01/10 10:06:14;;;;;;;202.75;66.78;;;0.50;99.90;;;;;;4987315;28;20480;-84
2022/01/10 10:08:40;;;;;;;188.20;64.60;;;0.50;99.90;;;;;;5004215;28;20053;-85
2022/01/10 10:11:09;;;;;;;190.15;68.90;;;0.50;99.90;;;;;;5005216;28;20045;-85
2022/01/10 10:13:52;;;;;;;189.65;68.28;;;0.50;99.90;;;;;;5004668;28;20572;-84
2022/01/10 10:16:18;;;;;;;195.27;67.60;;;0.50;99.90;;;;;;5004067;28;20038;-85
2022/01/10 10:18:47;;;;;;;205.90;71.57;;;0.50;99.90;;;;;;4986862;28;20054;-83
2022/01/10 10:21:17;;;;;;;191.48;67.28;;;0.50;99.90;;;;;;5003754;28;20045;-85
2022/01/10 10:23:48;;;;;;;200.98;69.70;;;0.60;99.90;;;;;;5004317;28;20583;-83
2022/01/10 10:26:17;;;;;;;200.73;70.43;;;0.60;99.90;;;;;;5004202;28;20456;-84
2022/01/10 10:28:45;;;;;;;201.63;72.65;;;0.60;99.90;;;;;;5004057;28;20050;-84
2022/01/10 10:31:11;;;;;;;199.73;70.47;;;0.60;99.90;;;;;;5008178;28;20060;-84
2022/01/10 10:33:47;;;;;;;179.02;68.45;;;0.70;99.90;;;;;;5007898;28;20054;-84
2022/01/10 10:36:13;;;;;;;202.57;72.35;;;0.70;99.90;;;;;;4990252;28;20053;-84
2022/01/10 10:38:39;;;;;;;200.48;73.25;;;0.70;99.90;;;;;;4990886;28;20572;-82
2022/01/10 10:41:05;;;;;;;180.85;70.55;;;0.80;99.90;;;;;;5009893;28;20576;-84
2022/01/10 10:43:32;;;;;;;202.45;71.78;;;0.80;99.90;;;;;;4991944;28;20603;-86
2022/01/10 10:46:03;;;;;;;174.00;70.70;;;0.90;99.90;;;;;;4989289;28;20052;-85
2022/01/10 10:48:30;;;;;;;191.93;70.10;;;1.00;99.90;;;;;;4991050;28;20596;-84
2022/01/10 10:50:59;;;;;;;176.80;68.47;;;1.10;99.90;;;;;;5009316;28;20052;-83
2022/01/10 10:53:27;;;;;;;189.13;71.57;;;1.10;99.90;;;;;;5010275;28;20415;-85
2022/01/10 10:55:57;;;;;;;182.18;69.28;;;1.20;99.90;;;;;;5008259;28;20088;-86
2022/01/10 10:58:23;;;;;;;174.30;70.38;;;1.30;99.90;;;;;;5009846;28;20119;-85
2022/01/10 11:00:49;;;;;;;183.15;71.78;;;1.40;99.90;;;;;;5009732;28;20134;-85
2022/01/10 11:03:18;;;;;;;176.30;68.97;;;1.50;99.90;;;;;;4992083;28;20132;-86
2022/01/10 11:05:46;;;;;;;177.70;70.50;;;1.50;99.90;;;;;;4991913;28;20041;-83
2022/01/10 11:08:13;;;;;;;163.88;68.70;;;1.60;99.90;;;;;;5009034;28;20052;-84
2022/01/10 11:10:39;;;;;;;201.10;71.50;;;1.70;99.90;;;;;;4990543;28;20045;-85
2022/01/10 11:13:06;;;;;;;168.05;65.35;;;1.70;99.90;;;;;;5006654;28;20116;-85
2022/01/10 11:15:32;;;;;;;166.85;65.80;;;1.80;99.90;;;;;;5006970;28;20495;-86
2022/01/10 11:18:03;;;;;;;159.65;65.53;;;1.90;99.90;;;;;;5007824;28;20476;-85
2022/01/10 11:20:29;;;;;;;158.85;66.43;;;2.10;99.90;;;;;;5007911;28;20050;-84
2022/01/10 11:22:58;;;;;;;177.23;69.95;;;2.20;99.90;;;;;;5008952;28;20060;-85
2022/01/10 11:25:25;;;;;;;159.48;66.22;;;3.00;99.90;;;;;;5008101;28;20050;-84
2022/01/10 11:27:53;;;;;;;161.80;66.60;;;2.50;99.90;;;;;;5005018;28;20054;-84
2022/01/10 11:30:24;;;;;;;169.55;65.05;;;2.60;99.90;;;;;;5004940;28;20123;-85
2022/01/10 11:32:57;;;;;;;163.05;64.70;;;2.70;99.90;;;;;;5005165;28;20117;-83
2022/01/10 11:35:27;;;;;;;165.05;59.42;;;2.80;99.90;;;;;;5006491;28;20050;-85
2022/01/10 11:37:53;;;;;;;155.98;62.13;;;3.10;99.90;;;;;;4987537;28;20064;-85
2022/01/10 11:40:19;;;;;;;156.10;65.35;;;3.20;99.90;;;;;;4987850;28;20506;-84
2022/01/10 11:42:53;;;;;;;155.88;65.45;;;3.30;99.90;;;;;;5008488;28;20058;-83
2022/01/10 11:45:18;;;;;;;158.57;57.63;;;3.40;99.90;;;;;;5008742;28;20080;-82
2022/01/10 11:48:04;;;;;;;158.48;65.28;;;3.50;99.90;;;;;;5009225;28;20508;-82
2022/01/10 11:50:30;;;;;;;145.45;62.00;;;3.60;99.90;;;;;;5009421;28;20130;-84
2022/01/10 11:52:59;;;;;;;148.10;60.33;;;3.60;99.90;;;;;;5009070;28;20052;-84
2022/01/10 11:55:55;;;;;;;143.48;59.10;;;3.70;99.90;;;;;;5009029;28;20524;-83
2022/01/10 11:58:24;;;;;;;130.40;58.08;;;3.70;99.90;;;;;;4996332;28;20084;-85
2022/01/10 12:00:52;;;;;;;144.85;56.97;;;3.70;99.90;;;;;;5009860;28;20081;-84
2022/01/10 12:03:21;;;;;;;128.77;55.63;;;3.80;99.90;;;;;;5009026;28;20058;-84
2022/01/10 12:05:48;;;;;;;134.07;56.20;;;3.80;99.90;;;;;;5008646;28;20483;-84
2022/01/10 12:08:14;;;;;;;132.77;57.22;;;3.90;99.90;;;;;;5008607;28;20153;-84
2022/01/10 12:10:40;;;;;;;130.75;56.15;;;3.90;99.90;;;;;;4991364;28;20050;-86
2022/01/10 12:13:11;;;;;;;134.20;54.85;;;3.90;99.90;;;;;;5008801;28;20956;-84
2022/01/10 12:15:38;;;;;;;127.97;55.15;;;4.10;99.90;;;;;;5008281;28;20046;-83
2022/01/10 12:18:04;;;;;;;123.68;55.05;;;4.10;99.90;;;;;;5008517;28;20050;-83
2022/01/10 12:20:31;;;;;;;118.65;54.90;;;4.10;99.90;;;;;;4974410;28;20493;-83
2022/01/10 12:22:58;;;;;;;118.68;51.40;;;4.30;99.90;;;;;;5008526;28;20049;-84
2022/01/10 12:25:24;;;;;;;101.70;46.70;;;4.40;99.90;;;;;;5008432;28;20042;-84
2022/01/10 12:28:00;;;;;;;107.95;46.40;;;4.50;99.90;;;;;;4974201;28;20064;-84